sensor_id;sensor_type;location;lat;lon;timestamp;P1;durP1;ratioP1;P2;durP2;ratioP2
23678;SDS011;12016;51.668;6.874;2022-11-11T00:06:08;8.43;;;5.05;;
23678;SDS011;12016;51.668;6.874;2022-11-11T00:12:30;7.88;;;5.10;;
23678;SDS011;12016;51.668;6.874;2022-11-11T00:18:50;8.45;;;4.90;;
23678;SDS011;12016;51.668;6.874;2022-11-11T00:25:29;8.25;;;5.07;;
23678;SDS011;12016;51.668;6.874;2022-11-11T00:31:50;8.97;;;5.23;;
23678;SDS011;12016;51.668;6.874;2022-11-11T00:38:29;10.70;;;6.32;;
23678;SDS011;12016;51.668;6.874;2022-11-11T00:45:04;9.85;;;6.38;;
23678;SDS011;12016;51.668;6.874;2022-11-11T00:51:26;10.90;;;6.70;;
23678;SDS011;12016;51.668;6.874;2022-11-11T00:57:46;10.07;;;6.30;;
23678;SDS011;12016;51.668;6.874;2022-11-11T01:04:07;9.15;;;6.75;;
23678;SDS011;12016;51.668;6.874;2022-11-11T01:10:27;11.93;;;6.00;;
23678;SDS011;12016;51.668;6.874;2022-11-11T01:16:57;10.55;;;6.75;;
23678;SDS011;12016;51.668;6.874;2022-11-11T01:23:18;11.13;;;7.00;;
23678;SDS011;12016;51.668;6.874;2022-11-11T01:29:38;11.77;;;6.83;;
23678;SDS011;12016;51.668;6.874;2022-11-11T01:36:09;10.43;;;7.10;;
23678;SDS011;12016;51.668;6.874;2022-11-11T01:42:47;11.97;;;7.63;;
23678;SDS011;12016;51.668;6.874;2022-11-11T01:56:05;9.82;;;6.15;;
23678;SDS011;12016;51.668;6.874;2022-11-11T02:02:31;9.75;;;5.47;;
23678;SDS011;12016;51.668;6.874;2022-11-11T02:08:57;9.15;;;4.28;;
23678;SDS011;12016;51.668;6.874;2022-11-11T02:15:18;6.60;;;3.92;;
23678;SDS011;12016;51.668;6.874;2022-11-11T02:21:43;6.57;;;3.47;;
23678;SDS011;12016;51.668;6.874;2022-11-11T02:28:10;5.30;;;3.40;;
23678;SDS011;12016;51.668;6.874;2022-11-11T02:34:33;6.72;;;3.58;;
23678;SDS011;12016;51.668;6.874;2022-11-11T02:40:54;6.33;;;3.40;;
23678;SDS011;12016;51.668;6.874;2022-11-11T02:47:33;6.78;;;3.40;;
23678;SDS011;12016;51.668;6.874;2022-11-11T02:53:53;6.03;;;3.70;;
23678;SDS011;12016;51.668;6.874;2022-11-11T03:00:18;7.18;;;3.72;;
23678;SDS011;12016;51.668;6.874;2022-11-11T03:06:38;7.40;;;3.40;;
23678;SDS011;12016;51.668;6.874;2022-11-11T03:12:59;5.15;;;3.38;;
23678;SDS011;12016;51.668;6.874;2022-11-11T03:19:19;4.75;;;3.53;;
23678;SDS011;12016;51.668;6.874;2022-11-11T03:25:44;6.80;;;3.50;;
23678;SDS011;12016;51.668;6.874;2022-11-11T03:32:06;7.10;;;3.78;;
23678;SDS011;12016;51.668;6.874;2022-11-11T03:38:27;4.65;;;3.33;;
23678;SDS011;12016;51.668;6.874;2022-11-11T03:44:47;5.78;;;3.40;;
23678;SDS011;12016;51.668;6.874;2022-11-11T03:51:08;6.97;;;3.63;;
23678;SDS011;12016;51.668;6.874;2022-11-11T03:57:29;7.47;;;4.07;;
23678;SDS011;12016;51.668;6.874;2022-11-11T04:03:49;6.03;;;4.00;;
23678;SDS011;12016;51.668;6.874;2022-11-11T04:10:28;6.70;;;4.18;;
23678;SDS011;12016;51.668;6.874;2022-11-11T04:16:50;6.93;;;4.20;;
23678;SDS011;12016;51.668;6.874;2022-11-11T04:23:10;6.00;;;4.10;;
23678;SDS011;12016;51.668;6.874;2022-11-11T04:29:31;5.03;;;3.63;;
23678;SDS011;12016;51.668;6.874;2022-11-11T04:35:52;8.13;;;3.85;;
23678;SDS011;12016;51.668;6.874;2022-11-11T04:42:13;8.70;;;3.85;;
23678;SDS011;12016;51.668;6.874;2022-11-11T04:48:33;8.20;;;3.97;;
23678;SDS011;12016;51.668;6.874;2022-11-11T04:54:54;7.28;;;3.92;;
23678;SDS011;12016;51.668;6.874;2022-11-11T05:01:36;8.07;;;4.53;;
23678;SDS011;12016;51.668;6.874;2022-11-11T05:08:15;6.90;;;4.82;;
23678;SDS011;12016;51.668;6.874;2022-11-11T05:14:54;10.30;;;5.78;;
23678;SDS011;12016;51.668;6.874;2022-11-11T05:21:33;11.38;;;6.53;;
23678;SDS011;12016;51.668;6.874;2022-11-11T05:27:57;11.50;;;6.40;;
23678;SDS011;12016;51.668;6.874;2022-11-11T05:34:17;11.63;;;7.60;;
23678;SDS011;12016;51.668;6.874;2022-11-11T05:40:38;11.97;;;7.43;;
23678;SDS011;12016;51.668;6.874;2022-11-11T05:46:58;14.82;;;7.80;;
23678;SDS011;12016;51.668;6.874;2022-11-11T05:53:21;14.10;;;8.43;;
23678;SDS011;12016;51.668;6.874;2022-11-11T05:59:43;13.27;;;8.65;;
23678;SDS011;12016;51.668;6.874;2022-11-11T06:06:05;11.85;;;7.95;;
23678;SDS011;12016;51.668;6.874;2022-11-11T06:12:26;12.80;;;7.53;;
23678;SDS011;12016;51.668;6.874;2022-11-11T06:19:06;12.32;;;8.05;;
23678;SDS011;12016;51.668;6.874;2022-11-11T06:25:27;10.68;;;7.13;;
23678;SDS011;12016;51.668;6.874;2022-11-11T06:32:08;10.85;;;7.05;;
23678;SDS011;12016;51.668;6.874;2022-11-11T06:38:29;11.55;;;7.00;;
23678;SDS011;12016;51.668;6.874;2022-11-11T06:44:49;10.63;;;6.67;;
23678;SDS011;12016;51.668;6.874;2022-11-11T06:51:09;8.57;;;6.13;;
23678;SDS011;12016;51.668;6.874;2022-11-11T06:57:30;9.33;;;6.30;;
23678;SDS011;12016;51.668;6.874;2022-11-11T07:03:51;8.77;;;5.78;;
23678;SDS011;12016;51.668;6.874;2022-11-11T07:10:11;9.10;;;5.88;;
23678;SDS011;12016;51.668;6.874;2022-11-11T07:16:31;8.75;;;5.63;;
23678;SDS011;12016;51.668;6.874;2022-11-11T07:22:51;8.70;;;6.00;;
23678;SDS011;12016;51.668;6.874;2022-11-11T07:29:12;8.18;;;5.60;;
23678;SDS011;12016;51.668;6.874;2022-11-11T07:35:34;7.00;;;5.53;;
23678;SDS011;12016;51.668;6.874;2022-11-11T07:41:54;6.55;;;5.15;;
23678;SDS011;12016;51.668;6.874;2022-11-11T07:48:15;7.83;;;5.80;;
23678;SDS011;12016;51.668;6.874;2022-11-11T07:54:36;8.73;;;6.00;;
23678;SDS011;12016;51.668;6.874;2022-11-11T08:00:58;9.35;;;6.40;;
23678;SDS011;12016;51.668;6.874;2022-11-11T08:07:22;8.48;;;5.40;;
23678;SDS011;12016;51.668;6.874;2022-11-11T08:13:43;7.57;;;5.20;;
23678;SDS011;12016;51.668;6.874;2022-11-11T08:20:03;6.93;;;5.03;;
23678;SDS011;12016;51.668;6.874;2022-11-11T08:26:25;8.32;;;4.70;;
23678;SDS011;12016;51.668;6.874;2022-11-11T08:32:55;5.20;;;4.18;;
23678;SDS011;12016;51.668;6.874;2022-11-11T08:39:31;6.32;;;4.00;;
23678;SDS011;12016;51.668;6.874;2022-11-11T08:45:52;6.53;;;4.33;;
23678;SDS011;12016;51.668;6.874;2022-11-11T08:58:33;6.20;;;4.28;;
23678;SDS011;12016;51.668;6.874;2022-11-11T09:04:54;6.77;;;4.27;;
23678;SDS011;12016;51.668;6.874;2022-11-11T09:11:15;6.70;;;4.25;;
23678;SDS011;12016;51.668;6.874;2022-11-11T09:17:35;6.90;;;4.60;;
23678;SDS011;12016;51.668;6.874;2022-11-11T09:23:55;7.10;;;4.57;;
23678;SDS011;12016;51.668;6.874;2022-11-11T09:30:16;6.43;;;4.43;;
23678;SDS011;12016;51.668;6.874;2022-11-11T09:36:36;8.83;;;5.03;;
23678;SDS011;12016;51.668;6.874;2022-11-11T09:56:21;8.07;;;4.50;;
23678;SDS011;12016;51.668;6.874;2022-11-11T10:02:51;5.55;;;3.67;;
23678;SDS011;12016;51.668;6.874;2022-11-11T10:15:40;8.18;;;4.10;;
23678;SDS011;12016;51.668;6.874;2022-11-11T10:22:20;6.47;;;3.58;;
23678;SDS011;12016;51.668;6.874;2022-11-11T10:28:53;4.93;;;3.28;;
23678;SDS011;12016;51.668;6.874;2022-11-11T10:35:17;6.85;;;3.30;;
23678;SDS011;12016;51.668;6.874;2022-11-11T10:41:46;4.22;;;2.72;;
23678;SDS011;12016;51.668;6.874;2022-11-11T10:48:11;6.27;;;2.70;;
23678;SDS011;12016;51.668;6.874;2022-11-11T10:54:38;4.88;;;2.05;;
23678;SDS011;12016;51.668;6.874;2022-11-11T11:01:23;2.33;;;1.90;;
23678;SDS011;12016;51.668;6.874;2022-11-11T11:07:53;3.65;;;1.95;;
23678;SDS011;12016;51.668;6.874;2022-11-11T11:14:33;4.15;;;2.15;;
23678;SDS011;12016;51.668;6.874;2022-11-11T11:27:24;3.47;;;1.80;;
23678;SDS011;12016;51.668;6.874;2022-11-11T11:33:50;2.90;;;1.60;;
23678;SDS011;12016;51.668;6.874;2022-11-11T11:40:12;2.20;;;1.70;;
23678;SDS011;12016;51.668;6.874;2022-11-11T11:46:38;3.55;;;1.73;;
23678;SDS011;12016;51.668;6.874;2022-11-11T11:59:40;3.00;;;1.70;;
23678;SDS011;12016;51.668;6.874;2022-11-11T12:06:29;2.60;;;1.50;;
23678;SDS011;12016;51.668;6.874;2022-11-11T12:12:58;3.72;;;1.48;;
23678;SDS011;12016;51.668;6.874;2022-11-11T12:40:27;3.72;;;1.40;;
23678;SDS011;12016;51.668;6.874;2022-11-11T12:47:11;3.97;;;1.40;;
23678;SDS011;12016;51.668;6.874;2022-11-11T12:53:50;3.20;;;1.40;;
23678;SDS011;12016;51.668;6.874;2022-11-11T13:06:54;2.85;;;1.40;;
23678;SDS011;12016;51.668;6.874;2022-11-11T13:26:58;4.55;;;2.50;;
23678;SDS011;12016;51.668;6.874;2022-11-11T13:33:26;6.55;;;2.92;;
23678;SDS011;12016;51.668;6.874;2022-11-11T13:39:59;5.72;;;3.17;;
23678;SDS011;12016;51.668;6.874;2022-11-11T13:53:05;7.28;;;4.15;;
23678;SDS011;12016;51.668;6.874;2022-11-11T13:59:27;8.30;;;3.83;;
23678;SDS011;12016;51.668;6.874;2022-11-11T14:12:37;8.82;;;3.95;;
23678;SDS011;12016;51.668;6.874;2022-11-11T14:25:39;4.32;;;3.10;;
23678;SDS011;12016;51.668;6.874;2022-11-11T14:51:51;4.22;;;2.65;;
23678;SDS011;12016;51.668;6.874;2022-11-11T14:58:15;4.32;;;2.50;;
23678;SDS011;12016;51.668;6.874;2022-11-11T15:04:39;4.63;;;2.40;;
23678;SDS011;12016;51.668;6.874;2022-11-11T15:17:42;3.40;;;2.47;;
23678;SDS011;12016;51.668;6.874;2022-11-11T15:31:20;14.85;;;12.00;;
23678;SDS011;12016;51.668;6.874;2022-11-11T15:37:50;8.63;;;4.30;;
23678;SDS011;12016;51.668;6.874;2022-11-11T15:50:39;6.10;;;4.03;;
23678;SDS011;12016;51.668;6.874;2022-11-11T15:57:14;7.00;;;3.77;;
23678;SDS011;12016;51.668;6.874;2022-11-11T16:03:45;10.15;;;5.43;;
23678;SDS011;12016;51.668;6.874;2022-11-11T16:10:13;13.75;;;7.63;;
23678;SDS011;12016;51.668;6.874;2022-11-11T16:16:37;9.07;;;3.53;;
23678;SDS011;12016;51.668;6.874;2022-11-11T16:23:00;7.10;;;3.92;;
23678;SDS011;12016;51.668;6.874;2022-11-11T16:29:25;11.75;;;6.75;;
23678;SDS011;12016;51.668;6.874;2022-11-11T16:35:51;10.57;;;6.15;;
23678;SDS011;12016;51.668;6.874;2022-11-11T16:42:27;13.23;;;6.50;;
23678;SDS011;12016;51.668;6.874;2022-11-11T16:48:50;13.20;;;6.30;;
23678;SDS011;12016;51.668;6.874;2022-11-11T16:55:18;40.17;;;25.20;;
23678;SDS011;12016;51.668;6.874;2022-11-11T17:02:18;11.60;;;6.35;;
23678;SDS011;12016;51.668;6.874;2022-11-11T17:08:44;8.77;;;4.30;;
23678;SDS011;12016;51.668;6.874;2022-11-11T17:15:06;8.13;;;4.90;;
23678;SDS011;12016;51.668;6.874;2022-11-11T17:21:28;9.50;;;6.35;;
23678;SDS011;12016;51.668;6.874;2022-11-11T17:27:49;13.70;;;7.50;;
23678;SDS011;12016;51.668;6.874;2022-11-11T17:34:09;9.10;;;5.83;;
23678;SDS011;12016;51.668;6.874;2022-11-11T17:40:30;9.07;;;6.00;;
23678;SDS011;12016;51.668;6.874;2022-11-11T17:46:51;7.47;;;4.40;;
23678;SDS011;12016;51.668;6.874;2022-11-11T17:53:11;7.47;;;5.70;;
23678;SDS011;12016;51.668;6.874;2022-11-11T17:59:35;6.57;;;4.13;;
23678;SDS011;12016;51.668;6.874;2022-11-11T18:05:56;4.85;;;3.13;;
23678;SDS011;12016;51.668;6.874;2022-11-11T18:12:16;5.07;;;3.90;;
23678;SDS011;12016;51.668;6.874;2022-11-11T18:18:37;4.82;;;3.65;;
23678;SDS011;12016;51.668;6.874;2022-11-11T18:24:59;5.60;;;3.80;;
23678;SDS011;12016;51.668;6.874;2022-11-11T18:31:19;7.10;;;3.17;;
23678;SDS011;12016;51.668;6.874;2022-11-11T18:37:40;4.28;;;3.05;;
23678;SDS011;12016;51.668;6.874;2022-11-11T18:44:04;4.32;;;3.47;;
23678;SDS011;12016;51.668;6.874;2022-11-11T18:50:25;6.43;;;3.70;;
23678;SDS011;12016;51.668;6.874;2022-11-11T18:56:45;3.80;;;3.40;;
23678;SDS011;12016;51.668;6.874;2022-11-11T19:03:06;9.37;;;7.37;;
23678;SDS011;12016;51.668;6.874;2022-11-11T19:09:27;6.47;;;4.37;;
23678;SDS011;12016;51.668;6.874;2022-11-11T19:15:48;5.10;;;3.70;;
23678;SDS011;12016;51.668;6.874;2022-11-11T19:22:09;5.72;;;4.20;;
23678;SDS011;12016;51.668;6.874;2022-11-11T19:28:29;4.53;;;3.30;;
23678;SDS011;12016;51.668;6.874;2022-11-11T19:34:50;5.70;;;4.30;;
23678;SDS011;12016;51.668;6.874;2022-11-11T19:41:12;5.03;;;3.60;;
23678;SDS011;12016;51.668;6.874;2022-11-11T19:47:40;5.32;;;3.97;;
23678;SDS011;12016;51.668;6.874;2022-11-11T19:54:00;7.03;;;6.30;;
23678;SDS011;12016;51.668;6.874;2022-11-11T20:00:21;7.03;;;5.68;;
23678;SDS011;12016;51.668;6.874;2022-11-11T20:06:41;10.90;;;6.53;;
23678;SDS011;12016;51.668;6.874;2022-11-11T20:13:03;7.10;;;5.93;;
23678;SDS011;12016;51.668;6.874;2022-11-11T20:19:24;8.50;;;6.80;;
23678;SDS011;12016;51.668;6.874;2022-11-11T20:25:45;9.35;;;7.55;;
23678;SDS011;12016;51.668;6.874;2022-11-11T20:32:05;15.60;;;9.70;;
23678;SDS011;12016;51.668;6.874;2022-11-11T20:38:27;9.27;;;7.25;;
23678;SDS011;12016;51.668;6.874;2022-11-11T20:44:48;9.40;;;7.18;;
23678;SDS011;12016;51.668;6.874;2022-11-11T20:51:10;10.82;;;7.72;;
23678;SDS011;12016;51.668;6.874;2022-11-11T20:57:32;8.50;;;7.00;;
23678;SDS011;12016;51.668;6.874;2022-11-11T21:03:57;9.38;;;6.93;;
23678;SDS011;12016;51.668;6.874;2022-11-11T21:10:18;8.68;;;6.95;;
23678;SDS011;12016;51.668;6.874;2022-11-11T21:16:39;10.25;;;7.13;;
23678;SDS011;12016;51.668;6.874;2022-11-11T21:22:59;8.32;;;6.78;;
23678;SDS011;12016;51.668;6.874;2022-11-11T21:29:20;10.40;;;7.10;;
23678;SDS011;12016;51.668;6.874;2022-11-11T21:35:40;10.52;;;7.03;;
23678;SDS011;12016;51.668;6.874;2022-11-11T21:42:01;10.20;;;7.68;;
23678;SDS011;12016;51.668;6.874;2022-11-11T21:48:23;12.07;;;8.07;;
23678;SDS011;12016;51.668;6.874;2022-11-11T21:54:46;10.85;;;8.20;;
23678;SDS011;12016;51.668;6.874;2022-11-11T22:01:13;8.25;;;6.60;;
23678;SDS011;12016;51.668;6.874;2022-11-11T22:07:37;10.35;;;7.80;;
23678;SDS011;12016;51.668;6.874;2022-11-11T22:13:58;9.87;;;7.30;;
23678;SDS011;12016;51.668;6.874;2022-11-11T22:20:20;9.82;;;7.43;;
23678;SDS011;12016;51.668;6.874;2022-11-11T22:26:41;9.73;;;7.25;;
23678;SDS011;12016;51.668;6.874;2022-11-11T22:33:02;8.30;;;6.70;;
23678;SDS011;12016;51.668;6.874;2022-11-11T22:45:51;9.95;;;6.88;;
23678;SDS011;12016;51.668;6.874;2022-11-11T22:52:12;9.82;;;7.47;;
23678;SDS011;12016;51.668;6.874;2022-11-11T22:58:33;8.90;;;7.30;;
23678;SDS011;12016;51.668;6.874;2022-11-11T23:04:54;12.40;;;9.18;;
23678;SDS011;12016;51.668;6.874;2022-11-11T23:11:23;15.30;;;11.03;;
23678;SDS011;12016;51.668;6.874;2022-11-11T23:17:45;20.08;;;14.05;;
23678;SDS011;12016;51.668;6.874;2022-11-11T23:24:06;14.43;;;10.32;;
23678;SDS011;12016;51.668;6.874;2022-11-11T23:30:26;15.18;;;11.10;;
23678;SDS011;12016;51.668;6.874;2022-11-11T23:36:47;11.38;;;9.30;;
23678;SDS011;12016;51.668;6.874;2022-11-11T23:43:07;9.63;;;8.63;;
23678;SDS011;12016;51.668;6.874;2022-11-11T23:49:28;10.35;;;8.40;;
23678;SDS011;12016;51.668;6.874;2022-11-11T23:55:48;14.02;;;9.27;;
